Pretoria, South Africa
Current Conditions -  °F | °C
As of 7:00 PM on Wednesday 26 Nov 2014 (Local Time) from FALA Reporting Station
Few Clouds Few Clouds  
Wind Chill: 81°   Ceiling: Unl
Heat Index: 81°   Visibility: 6mi
Dew Point: 52°   Wind: 0mph
Humidity: 37%   Direction: NA
Pressure: 30"   Gusts: NA
Location:  25.73°S, 28.22°E
Report Text: FALA 261700Z 00000KT 9999 FEW040 27/11 Q1016 NOSIG RMK CB TO SW
Loading
Personal Weather Stations






























Interactive Weather Map New forecast layout! Learn more

10-Day Weather Forecast

Advertisements
Track Severe Weather on mobile